Latest Weather Observations for Ballina

IDN60801

Issued at 6:05 am EDT Saturday 25 October 2014 (issued every 30 minutes, with the page automatically refreshed every 10 minutes)

About weather observations | Map of weather stations | Latest weather observations for NSW | Other Formats
Station Details ID: 058198 Name: BALLINA AIRPORT AWS Lat: -28.84 Lon: 153.56 Height: 1.3 m
Data from the previous 72 hours. | See also: Recent months at Ballina
Date/Time
EDT
Temp
°C
App
Temp
°C
Dew
Point
Rel
Hum
%
Delta-T
°C
Wind Press
QNH
hPa
Press
MSL
hPa
Rain
since 9 am
mm
Dir
 
Spd
km/h
Gust
km/h
Spd
kts
Gust
kts
25/06:00am 17.2 18.2 14.3 83 1.7 N 2 6 1 3 1018.1 1018.1 0.0
25/05:30am 17.7 17.5 14.6 82 1.8 NNW 9 13 5 7 1017.8 1017.8 0.0
25/05:00am 17.4 17.1 14.3 82 1.8 N 9 13 5 7 1017.5 1017.5 0.0
25/04:30am 17.5 17.6 14.0 80 2.0 N 6 9 3 5 1017.7 1017.7 0.0
25/04:00am 17.8 17.4 14.1 79 2.1 N 9 13 5 7 1017.6 1017.6 0.0
25/03:30am 18.2 17.8 14.1 77 2.3 N 9 15 5 8 1017.9 1017.9 0.0
25/03:00am 18.7 17.6 14.4 76 2.5 N 13 17 7 9 1017.9 1017.9 0.0
25/02:30am 19.1 17.3 14.4 74 2.7 N 17 22 9 12 1018.2 1018.2 0.0
25/02:00am 19.4 16.9 14.2 72 3.0 N 20 28 11 15 1018.4 1018.4 0.0
25/01:30am 19.7 16.5 14.3 71 3.1 N 24 35 13 19 1018.9 1018.9 0.0
25/01:00am 19.8 16.3 14.4 71 3.1 N 26 39 14 21 1018.9 1018.9 0.0
25/12:30am 19.9 16.9 14.7 72 3.0 N 24 37 13 20 1019.5 1019.5 0.0
25/12:00am 19.8 18.3 15.4 76 2.6 N 17 22 9 12 1020.5 1020.5 0.0
 
Date/Time
EDT
Temp
°C
App
Temp
°C
Dew
Point
Rel
Hum
%
Delta-T
°C
Wind Press
QNH
hPa
Press
MSL
hPa
Rain
since 9 am
mm
Dir
 
Spd
km/h
Gust
km/h
Spd
kts
Gust
kts
24/11:30pm 20.0 18.0 15.6 76 2.6 N 20 28 11 15 1020.8 1020.8 0.0
24/11:00pm 20.2 18.3 15.8 76 2.6 N 20 28 11 15 1020.9 1020.9 0.0
24/10:30pm 20.2 18.3 15.8 76 2.6 N 20 30 11 16 1020.8 1020.8 0.0
24/10:00pm 20.1 18.2 15.7 76 2.6 N 20 33 11 18 1021.1 1021.1 0.0
24/09:30pm 20.1 18.2 15.7 76 2.6 NNE 20 28 11 15 1021.0 1021.0 0.0
24/09:00pm 20.2 18.5 15.8 76 2.6 NNE 19 28 10 15 1020.9 1020.9 0.0
24/08:30pm 20.3 18.0 15.7 75 2.7 NNE 22 30 12 16 1020.7 1020.7 0.0
24/08:00pm 20.2 17.9 15.6 75 2.7 NNE 22 35 12 19 1020.3 1020.3 0.0
24/07:30pm 20.2 18.2 15.6 75 2.7 NNE 20 30 11 16 1020.4 1020.4 0.0
24/07:00pm 20.4 18.1 15.6 74 2.8 NNE 22 30 12 16 1020.0 1020.0 0.0
24/06:30pm 20.9 17.7 15.4 71 3.3 NNE 26 39 14 21 1019.9 1019.9 0.0
24/06:00pm 21.7 18.6 15.5 68 3.7 NNE 26 37 14 20 1019.7 1019.7 0.0
24/05:30pm 22.2 18.7 15.5 66 4.0 NNE 28 39 15 21 1019.2 1019.2 0.0
24/05:00pm 22.4 17.9 15.3 64 4.2 NE 33 44 18 24 1019.1 1019.1 0.0
24/04:30pm 22.9 18.1 15.7 64 4.3 NE 35 44 19 24 1019.3 1019.3 0.0
24/04:00pm 23.3 18.7 16.1 64 4.4 NE 35 46 19 25 1019.4 1019.4 0.0
24/03:30pm 23.7 19.4 16.0 62 4.7 NNE 33 46 18 25 1019.8 1019.8 0.0
24/03:00pm 24.5 20.7 16.7 61 4.8 NE 32 43 17 23 1020.1 1020.1 0.0
24/02:30pm 23.8 19.8 16.1 62 4.7 NE 32 41 17 22 1020.4 1020.4 0.0
24/02:00pm 24.0 20.3 16.0 61 4.8 NE 30 43 16 23 1020.5 1020.5 0.0
24/01:30pm 23.9 20.3 16.2 62 4.7 NE 30 43 16 23 1020.8 1020.8 0.0
24/01:00pm 24.2 20.4 15.7 59 5.1 NE 30 44 16 24 1021.2 1021.2 0.0
24/12:30pm 24.1 20.0 15.9 60 5.0 NE 32 44 17 24 1021.4 1021.4 0.0
24/12:00pm 24.5 20.3 15.7 58 5.3 NE 32 41 17 22 1021.5 1021.5 0.0
24/11:30am 24.9 21.4 15.5 56 5.7 NE 28 39 15 21 1021.7 1021.7 0.0
24/11:00am 24.2 20.4 14.6 55 5.7 NE 28 35 15 19 1021.9 1021.9 0.0
24/10:30am 24.6 22.6 15.5 57 5.5 NNE 20 30 11 16 1022.2 1022.2 0.0
24/10:00am 23.9 21.6 14.6 56 5.5 NNE 20 32 11 17 1022.5 1022.5 0.0
24/09:30am 23.2 21.2 15.0 60 4.9 N 19 30 10 16 1022.4 1022.4 0.0
24/09:00am 22.2 19.6 13.8 59 4.9 N 20 32 11 17 1022.5 1022.5 0.0
24/08:30am 21.9 19.8 14.8 64 4.2 N 19 24 10 13 1022.2 1022.2 0.0
24/08:00am 20.5 19.5 14.6 69 3.4 N 13 19 7 10 1022.3 1022.3 0.0
24/07:30am 19.1 18.8 14.4 74 2.7 N 9 13 5 7 1022.2 1022.2 0.0
24/07:00am 17.7 18.0 14.6 82 1.8 N 6 11 3 6 1022.0 1022.0 0.0
24/06:30am 15.5 15.3 13.0 85 1.4 N 6 6 3 3 1021.5 1021.5 0.0
24/06:00am 16.3 16.2 13.8 85 1.4 N 7 9 4 5 1021.2 1021.2 0.0
24/05:30am 16.4 15.7 13.3 82 1.7 N 9 11 5 6 1020.9 1020.9 0.0
24/05:00am 16.3 15.7 13.6 84 1.5 N 9 13 5 7 1020.5 1020.5 0.0
24/04:30am 16.6 16.4 13.7 83 1.6 N 7 9 4 5 1020.6 1020.6 0.0
24/04:00am 16.6 16.4 13.5 82 1.7 N 7 11 4 6 1020.2 1020.2 0.0
24/03:30am 16.9 16.3 13.6 81 1.9 N 9 11 5 6 1020.3 1020.3 0.0
24/03:00am 17.5 16.9 13.4 77 2.3 N 9 13 5 7 1020.5 1020.5 0.0
24/02:30am 17.8 16.5 13.7 77 2.3 N 13 19 7 10 1020.2 1020.2 0.0
24/02:00am 17.8 16.6 13.9 78 2.2 NNE 13 17 7 9 1020.7 1020.7 0.0
24/01:30am 18.1 17.0 14.2 78 2.2 N 13 17 7 9 1020.9 1020.9 0.0
24/01:00am 18.0 16.8 14.1 78 2.2 NNE 13 19 7 10 1021.0 1021.0 0.0
24/12:30am 18.0 16.8 14.1 78 2.2 NNE 13 17 7 9 1021.2 1021.2 0.0
24/12:00am 18.2 17.0 14.1 77 2.3 NNE 13 19 7 10 1021.2 1021.2 0.0
 
Date/Time
EDT
Temp
°C
App
Temp
°C
Dew
Point
Rel
Hum
%
Delta-T
°C
Wind Press
QNH
hPa
Press
MSL
hPa
Rain
since 9 am
mm
Dir
 
Spd
km/h
Gust
km/h
Spd
kts
Gust
kts
23/11:30pm 17.8 16.9 13.7 77 2.3 NNE 11 13 6 7 1021.3 1021.3 0.0
23/11:00pm 18.3 17.4 13.8 75 2.6 N 11 13 6 7 1021.2 1021.2 0.0
23/10:30pm 18.6 17.8 14.1 75 2.6 NNE 11 15 6 8 1021.2 1021.2 0.0
23/10:00pm 18.8 18.1 14.3 75 2.6 N 11 17 6 9 1020.9 1020.9 0.0
23/09:30pm 19.2 17.7 14.2 73 2.9 NNE 15 19 8 10 1020.7 1020.7 0.0
23/09:00pm 19.6 18.5 14.4 72 3.0 NNE 13 19 7 10 1020.4 1020.4 0.0
23/08:30pm 20.0 18.3 14.6 71 3.1 N 17 28 9 15 1020.0 1020.0 0.0
23/08:00pm 19.8 18.0 14.4 71 3.1 NNE 17 22 9 12 1019.7 1019.7 0.0
23/07:30pm 19.9 18.7 14.0 69 3.4 NNE 13 17 7 9 1019.6 1019.6 0.0
23/07:00pm 20.3 19.1 14.0 67 3.6 N 13 20 7 11 1019.5 1019.5 0.0
23/06:30pm 20.5 18.5 13.9 66 3.8 NNE 17 24 9 13 1018.9 1018.9 0.0
23/06:00pm 20.7 18.7 13.9 65 3.9 NNE 17 24 9 13 1018.5 1018.5 0.0
23/05:30pm 21.3 19.0 14.0 63 4.2 NNE 19 24 10 13 1018.3 1018.3 0.0
23/05:00pm 22.3 19.4 13.9 59 4.9 NNE 22 33 12 18 1017.7 1017.7 0.0
23/04:30pm 22.7 18.9 13.7 56 5.2 NNE 26 39 14 21 1017.5 1017.5 0.0
23/04:00pm 23.2 19.1 13.9 56 5.4 NE 28 43 15 23 1017.2 1017.2 0.0
23/03:30pm 23.6 19.1 15.4 60 4.9 NE 33 43 18 23 1017.2 1017.2 0.0
23/03:00pm 23.2 18.6 14.5 58 5.1 NE 32 44 17 24 1017.5 1017.5 0.0
23/02:30pm 23.6 19.5 14.9 58 5.2 NE 30 39 16 21 1017.9 1017.9 0.0
23/02:00pm 23.3 18.7 14.6 58 5.1 NE 32 39 17 21 1018.2 1018.2 0.0
23/01:30pm 23.2 18.7 13.9 56 5.4 NE 30 39 16 21 1018.7 1018.7 0.0
23/01:00pm 23.3 18.6 14.3 57 5.3 NE 32 41 17 22 1019.3 1019.3 0.0
23/12:30pm 23.5 19.3 13.4 53 5.9 NE 28 35 15 19 1019.9 1019.9 0.0
23/12:00pm 23.7 20.1 14.1 55 5.6 NE 26 35 14 19 1020.3 1020.3 0.0
23/11:30am 22.8 18.7 12.7 53 5.8 NE 26 33 14 18 1020.8 1020.8 0.0
23/11:00am 23.6 22.4 14.0 55 5.6 NNE 13 26 7 14 1021.4 1021.4 0.0
23/10:30am 22.6 20.5 12.5 53 5.7 NNE 15 20 8 11 1021.6 1021.6 0.0
23/10:00am 22.5 21.0 13.0 55 5.4 NNE 13 22 7 12 1022.0 1022.0 0.0
23/09:30am 21.8 20.1 13.7 60 4.7 N 15 20 8 11 1022.0 1022.0 0.0
23/09:00am 20.6 18.3 11.8 57 4.9 N 15 28 8 15 1022.2 1022.2 0.0
23/08:30am 19.6 18.1 13.1 66 3.7 NNW 13 17 7 9 1022.5 1022.5 0.0
23/08:00am 17.4 18.2 13.7 79 2.1 NW 2 6 1 3 1022.5 1022.5 0.0
23/07:30am 15.5 16.7 13.7 89 1.0 CALM 0 7 0 4 1022.4 1022.4 0.0
23/07:00am 13.0 13.8 12.4 96 0.3 CALM 0 0 0 0 1022.3 1022.3 0.0
23/06:30am 11.0 11.1 10.2 95 0.4 CALM 0 0 0 0 1022.1 1022.1 0.0
23/06:00am 12.0 12.4 11.2 95 0.4 CALM 0 0 0 0 1021.7 1021.7 0.0
23/05:30am 11.8 12.1 11.0 95 0.4 CALM 0 0 0 0 1021.6 1021.6 0.0
23/05:00am 12.4 11.8 11.6 95 0.4 N 6 6 3 3 1021.5 1021.5 0.0
23/04:30am 12.2 12.6 11.4 95 0.4 CALM 0 0 0 0 1021.3 1021.3 0.0
23/04:00am 12.8 13.5 12.2 96 0.3 CALM 0 0 0 0 1021.6 1021.6 0.0
23/03:30am 13.0 13.8 12.5 97 0.3 CALM 0 0 0 0 1021.8 1021.8 0.0
23/03:00am 12.5 13.1 12.0 97 0.3 CALM 0 0 0 0 1022.0 1022.0 0.0
23/02:30am 11.6 11.9 11.0 96 0.3 CALM 0 0 0 0 1022.2 1022.2 0.0
23/02:00am 11.6 11.9 10.8 95 0.4 CALM 0 0 0 0 1022.5 1022.5 0.0
23/01:30am 11.6 11.8 10.7 94 0.5 CALM 0 0 0 0 1022.7 1022.7 0.0
23/01:00am 12.3 12.8 11.5 95 0.4 CALM 0 0 0 0 1023.0 1023.0 0.0
23/12:30am 12.4 12.9 11.5 94 0.5 CALM 0 0 0 0 1023.1 1023.1 0.0
23/12:00am 12.6 13.1 11.5 93 0.6 CALM 0 0 0 0 1023.4 1023.4 0.0
 
Date/Time
EDT
Temp
°C
App
Temp
°C
Dew
Point
Rel
Hum
%
Delta-T
°C
Wind Press
QNH
hPa
Press
MSL
hPa
Rain
since 9 am
mm
Dir
 
Spd
km/h
Gust
km/h
Spd
kts
Gust
kts
22/11:30pm 13.1 13.8 12.2 94 0.5 CALM 0 0 0 0 1023.6 1023.6 0.0
22/11:00pm 12.9 13.5 11.8 93 0.6 CALM 0 0 0 0 1023.5 1023.5 0.0
22/10:30pm 13.3 13.9 12.0 92 0.7 CALM 0 0 0 0 1023.6 1023.6 0.0
22/10:00pm 13.8 14.1 12.2 90 0.9 NNW 2 6 1 3 1023.8 1023.8 0.0
22/09:30pm 14.4 14.1 12.6 89 1.0 NNW 6 7 3 4 1023.9 1023.9 0.0
22/09:00pm 14.8 15.5 12.1 84 1.5 CALM 0 6 0 3 1023.8 1023.8 0.0
22/08:30pm 15.7 15.9 11.9 78 2.1 NE 2 6 1 3 1023.8 1023.8 0.0
22/08:00pm 16.2 15.6 11.6 74 2.5 NE 6 7 3 4 1023.8 1023.8 0.0
22/07:30pm 16.9 16.1 11.6 71 2.9 ENE 7 11 4 6 1023.7 1023.7 0.0
22/07:00pm 17.8 16.0 10.9 64 3.7 E 11 13 6 7 1023.5 1023.5 0.0
22/06:30pm 19.4 17.2 10.9 58 4.6 E 13 17 7 9 1023.5 1023.5 0.0
22/06:00pm 20.1 18.0 11.3 57 4.8 E 13 19 7 10 1023.4 1023.4 0.0
22/05:30pm 20.2 17.4 11.4 57 4.8 E 17 24 9 13 1023.3 1023.3 0.0
22/05:00pm 20.4 17.0 11.3 56 5.0 ESE 20 26 11 14 1023.3 1023.3 0.0
22/04:30pm 21.9 19.5 12.5 55 5.3 ESE 17 28 9 15 1023.1 1023.1 0.0
22/04:00pm 21.2 19.3 12.9 59 4.7 ESE 15 22 8 12 1023.2 1023.2 0.0
22/03:30pm 21.0 18.9 13.7 63 4.2 SE 17 24 9 13 1023.5 1023.5 0.0
22/03:00pm 20.6 18.2 12.8 61 4.4 E 17 22 9 12 1023.8 1023.8 0.0
22/02:30pm 21.2 18.9 13.1 60 4.6 SSE 17 26 9 14 1024.3 1024.3 0.0
22/02:00pm 21.7 18.8 13.9 61 4.5 SSE 22 30 12 16 1024.7 1024.7 0.0
22/01:30pm 21.0 17.5 13.4 62 4.4 SSE 24 32 13 17 1025.0 1025.0 0.0
22/01:00pm 21.2 17.3 12.1 56 5.1 SSE 24 32 13 17 1025.4 1025.4 0.0
22/12:30pm 21.3 17.8 13.5 61 4.5 SSE 24 35 13 19 1025.9 1025.9 0.0
22/12:00pm 21.2 18.4 13.1 60 4.6 SSE 20 30 11 16 1026.1 1026.1 0.0
22/11:30am 20.7 18.2 13.4 63 4.2 S 19 26 10 14 1026.3 1026.3 0.0
22/11:00am 19.8 18.1 13.5 67 3.6 SSW 15 20 8 11 1026.6 1026.6 0.0
22/10:30am 19.5 17.2 14.1 71 3.1 SSE 19 24 10 13 1026.8 1026.8 0.0
22/10:00am 18.2 17.4 16.0 87 1.3 SSW 15 28 8 15 1026.9 1026.9 0.0
22/09:30am 18.4 17.2 15.1 81 1.9 SW 15 19 8 10 1026.5 1026.5 0.0
22/09:00am 17.8 17.0 15.1 84 1.6 SW 13 19 7 10 1026.5 1026.5 5.8
22/08:30am 16.4 16.0 15.1 92 0.8 SW 11 17 6 9 1026.4 1026.4 5.8
22/08:00am 15.6 14.2 14.6 94 0.6 WSW 15 19 8 10 1026.3 1026.3 5.8
22/07:30am 15.4 14.0 14.6 95 0.5 WSW 15 22 8 12 1026.1 1026.1 5.6
22/07:00am 15.1 14.0 14.3 95 0.5 W 13 15 7 8 1026.1 1026.1 5.6
22/06:30am 14.8 14.1 14.2 96 0.3 W 11 15 6 8 1026.0 1026.0 5.6

Other Formats:

Comma delimited format used in spreadsheet applications
http://www.bom.gov.au/fwo/IDN60801/IDN60801.94596.axf

JavaScript Object Notation format (JSON) in row-major order
http://www.bom.gov.au/fwo/IDN60801/IDN60801.94596.json